Time;durP1;ratioP1;P1;durP2;ratioP2;P2;SDS_P1;SDS_P2;PMS_P1;PMS_P2;Temp;Humidity;BMP_temperature;BMP_pressure;BME280_temperature;BME280_humidity;BME280_pressure;Samples;Min_cycle;Max_cycle;Signal;HPM_P1;HPM_P2
2023/07/08 00:00:22;;;;;;;4.38;2.47;;;;;;;28.64;40.88;96895.22;5050689;28;20144;-27
2023/07/08 00:02:48;;;;;;;3.65;2.25;;;;;;;28.79;40.24;96903.09;5043361;28;20470;-26
2023/07/08 00:05:15;;;;;;;4.85;2.50;;;;;;;28.73;40.46;96903.16;5044111;28;20103;-26
2023/07/08 00:07:42;;;;;;;5.22;2.30;;;;;;;28.85;40.76;96912.09;5049697;28;20032;-26
2023/07/08 00:10:12;;;;;;;3.85;2.60;;;;;;;28.58;41.40;96900.13;5046646;28;20025;-26
2023/07/08 00:12:37;;;;;;;5.43;2.35;;;;;;;28.58;41.08;96891.78;5047500;28;20025;-26
2023/07/08 00:15:04;;;;;;;3.58;2.50;;;;;;;28.63;41.07;96895.75;5047887;28;20021;-26
2023/07/08 00:17:30;;;;;;;7.85;2.50;;;;;;;28.37;41.05;96893.69;5040661;28;20553;-26
2023/07/08 00:19:55;;;;;;;3.17;2.20;;;;;;;28.40;40.82;96893.38;5041152;28;20129;-26
2023/07/08 00:22:24;;;;;;;5.22;2.70;;;;;;;28.66;40.41;96911.44;5044759;28;20024;-26
2023/07/08 00:24:50;;;;;;;2.97;2.10;;;;;;;28.52;40.26;96921.84;5050219;28;20112;-26
2023/07/08 00:27:16;;;;;;;2.70;2.22;;;;;;;28.52;40.62;96946.94;5040457;28;20033;-26
2023/07/08 00:29:42;;;;;;;4.40;2.63;;;;;;;28.65;40.23;96949.75;5040337;28;20024;-26
2023/07/08 00:32:13;;;;;;;5.35;2.60;;;;;;;28.62;40.19;96956.41;5046652;28;20021;-26
2023/07/08 00:34:39;;;;;;;3.08;2.20;;;;;;;28.66;40.08;96970.78;5047740;28;20104;-26
2023/07/08 00:37:05;;;;;;;3.17;2.47;;;;;;;28.60;39.72;96967.34;5053401;28;20117;-27
2023/07/08 00:39:33;;;;;;;4.63;2.20;;;;;;;28.56;39.78;96972.50;5047483;28;20040;-26
2023/07/08 00:42:09;;;;;;;3.63;2.60;;;;;;;28.54;39.99;96977.84;5054207;28;20013;-26
2023/07/08 00:44:35;;;;;;;4.95;2.40;;;;;;;28.62;40.06;96989.88;5040116;28;20032;-26
2023/07/08 00:47:05;;;;;;;3.55;2.40;;;;;;;28.61;39.98;96982.78;5047516;28;20096;-26
2023/07/08 00:49:54;;;;;;;3.97;2.58;;;;;;;28.70;39.69;96990.75;5053023;28;20078;-26
2023/07/08 00:52:28;;;;;;;3.28;2.28;;;;;;;28.66;39.64;96989.56;5046208;28;20018;-26
2023/07/08 00:54:59;;;;;;;3.13;2.20;;;;;;;28.53;39.52;96965.19;5040971;28;20426;-26
2023/07/08 00:57:31;;;;;;;3.50;2.45;;;;;;;28.60;39.48;96942.22;5046209;28;20036;-26
2023/07/08 01:00:12;;;;;;;3.53;2.30;;;;;;;28.70;39.69;96923.75;5040958;28;20017;-26
2023/07/08 01:03:04;;;;;;;5.95;2.42;;;;;;;28.48;39.42;96915.81;5046021;28;20022;-27
2023/07/08 01:05:30;;;;;;;4.70;2.30;;;;;;;28.50;39.32;96905.63;5051139;28;20087;-26
2023/07/08 01:07:59;;;;;;;5.38;2.45;;;;;;;28.39;39.70;96916.22;5046688;28;20029;-26
2023/07/08 01:10:33;;;;;;;3.75;2.30;;;;;;;28.70;38.94;96917.44;5040284;28;20032;-27
2023/07/08 01:13:04;;;;;;;5.30;2.47;;;;;;;28.51;39.08;96917.53;5053051;28;20071;-26
2023/07/08 01:15:41;;;;;;;5.88;2.47;;;;;;;28.63;38.79;96918.06;5047758;28;20473;-26
2023/07/08 01:18:09;;;;;;;2.95;2.22;;;;;;;28.52;38.52;96916.25;5046783;28;20049;-26
2023/07/08 01:20:35;;;;;;;4.93;2.40;;;;;;;28.44;38.28;96904.19;5040851;28;20037;-26
2023/07/08 01:23:00;;;;;;;2.63;2.17;;;;;;;28.50;39.02;96900.03;5051767;28;20024;-26
2023/07/08 01:25:27;;;;;;;4.63;2.50;;;;;;;28.47;39.08;96894.78;5049457;28;20041;-26
2023/07/08 01:27:56;;;;;;;4.55;2.58;;;;;;;28.57;38.40;96904.97;5043524;28;20025;-26
2023/07/08 01:30:22;;;;;;;4.05;2.38;;;;;;;28.38;38.67;96914.72;5044991;28;20108;-26
2023/07/08 01:32:56;;;;;;;4.28;2.20;;;;;;;28.31;38.64;96920.94;5053224;28;20163;-26
2023/07/08 01:35:22;;;;;;;5.03;2.40;;;;;;;28.44;39.02;96930.06;5052857;28;20029;-26
2023/07/08 01:37:53;;;;;;;4.53;2.63;;;;;;;28.48;39.11;96927.72;5053560;28;20115;-26
2023/07/08 01:40:37;;;;;;;3.53;2.45;;;;;;;28.33;39.20;96929.50;5052117;28;22690;-26
2023/07/08 01:43:08;;;;;;;4.18;2.38;;;;;;;28.18;39.79;96927.25;5052535;28;20049;-26
2023/07/08 01:45:40;;;;;;;3.83;2.38;;;;;;;28.33;39.74;96929.50;5053225;28;20465;-26
2023/07/08 01:48:09;;;;;;;3.70;2.25;;;;;;;28.27;39.09;96914.94;5046137;28;20469;-26
2023/07/08 01:50:38;;;;;;;2.70;2.20;;;;;;;28.47;39.27;96911.50;5045220;28;20036;-26
2023/07/08 01:53:11;;;;;;;5.07;2.28;;;;;;;28.30;39.46;96902.72;5045864;28;20021;-26
2023/07/08 01:55:37;;;;;;;3.50;2.40;;;;;;;28.34;39.28;96903.13;5052093;28;20040;-26
2023/07/08 01:58:02;;;;;;;5.40;2.60;;;;;;;28.46;38.71;96904.44;5046343;28;20373;-26
2023/07/08 02:00:28;;;;;;;3.70;2.15;;;;;;;28.25;39.16;96907.09;5044976;28;20492;-26
2023/07/08 02:02:53;;;;;;;2.95;2.33;;;;;;;28.22;38.82;96903.31;5046215;28;20012;-26
2023/07/08 02:05:19;;;;;;;3.42;2.10;;;;;;;28.40;38.98;96898.97;5052677;28;20434;-27
2023/07/08 02:07:44;;;;;;;4.32;2.60;;;;;;;28.28;39.58;96908.06;5044963;28;20095;-26
2023/07/08 02:10:10;;;;;;;3.70;2.45;;;;;;;28.37;38.89;96918.81;5041257;28;20027;-26
2023/07/08 02:12:35;;;;;;;4.78;2.47;;;;;;;28.43;38.32;96911.84;5049520;28;20021;-26
2023/07/08 02:15:02;;;;;;;4.72;2.40;;;;;;;28.37;38.45;96907.66;5049691;28;20046;-26
2023/07/08 02:17:30;;;;;;;6.00;2.63;;;;;;;28.41;38.40;96900.47;5042638;28;20025;-27
2023/07/08 02:19:56;;;;;;;3.65;2.33;;;;;;;28.45;38.40;96897.34;5050537;28;20492;-28
2023/07/08 02:22:23;;;;;;;3.20;2.00;;;;;;;28.45;38.54;96894.56;5048377;28;20112;-26
2023/07/08 02:24:48;;;;;;;4.28;2.08;;;;;;;28.14;37.66;96885.69;5049290;28;20036;-26
2023/07/08 02:27:14;;;;;;;5.30;2.53;;;;;;;28.09;37.54;96886.53;5044701;28;20020;-27
2023/07/08 02:29:40;;;;;;;4.82;2.10;;;;;;;28.16;37.53;96882.38;5052415;28;20033;-26
2023/07/08 02:32:07;;;;;;;3.40;2.38;;;;;;;28.17;37.59;96873.50;5042548;28;20025;-26
2023/07/08 02:34:32;;;;;;;4.10;2.42;;;;;;;28.13;37.49;96878.63;5039337;28;20047;-26
2023/07/08 02:36:58;;;;;;;2.85;2.10;;;;;;;27.96;38.16;96880.94;5052069;28;20371;-26
2023/07/08 02:39:23;;;;;;;3.63;2.28;;;;;;;27.94;38.08;96889.09;5043932;28;20459;-27
2023/07/08 02:41:49;;;;;;;3.80;2.45;;;;;;;28.05;38.41;96888.91;5052002;28;20021;-27
2023/07/08 02:44:14;;;;;;;5.90;2.60;;;;;;;28.10;38.09;96890.84;5049787;28;20028;-26
2023/07/08 02:46:40;;;;;;;4.32;2.35;;;;;;;28.37;38.57;96890.91;5048442;28;20104;-26
2023/07/08 02:49:06;;;;;;;4.82;2.40;;;;;;;28.20;38.96;96882.81;5048380;28;20032;-27
2023/07/08 02:51:32;;;;;;;5.15;2.38;;;;;;;28.11;39.53;96878.41;5048641;28;20096;-26
2023/07/08 02:53:57;;;;;;;3.08;2.17;;;;;;;28.26;39.53;96885.53;5046606;28;20557;-26
2023/07/08 02:56:23;;;;;;;4.25;2.20;;;;;;;28.22;39.42;96880.25;5044258;28;20386;-26
2023/07/08 02:58:49;;;;;;;4.07;2.38;;;;;;;28.17;38.97;96873.50;5044457;28;20024;-26
2023/07/08 03:01:18;;;;;;;3.75;2.40;;;;;;;28.37;38.72;96882.53;5051610;28;20113;-26
2023/07/08 03:03:47;;;;;;;6.22;2.40;;;;;;;28.04;39.67;96873.47;5050477;28;20021;-26
2023/07/08 03:06:13;;;;;;;3.50;2.22;;;;;;;28.22;38.12;96875.44;5051656;28;20013;-26
2023/07/08 03:08:38;;;;;;;3.95;2.05;;;;;;;28.10;39.09;96879.69;5043670;28;20489;-26
2023/07/08 03:11:05;;;;;;;4.63;2.20;;;;;;;28.03;38.67;96891.47;5044085;28;20374;-26
2023/07/08 03:13:32;;;;;;;3.40;2.40;;;;;;;28.02;39.94;96878.06;5044562;28;20118;-26
2023/07/08 03:15:59;;;;;;;3.15;2.30;;;;;;;28.16;38.41;96883.13;5050135;28;20031;-26
2023/07/08 03:18:26;;;;;;;4.80;2.50;;;;;;;28.05;38.56;96877.75;5049969;28;20424;-26
2023/07/08 03:20:53;;;;;;;5.38;2.58;;;;;;;28.24;37.78;96889.59;5043488;28;20404;-26
2023/07/08 03:23:18;;;;;;;5.45;2.60;;;;;;;28.09;38.74;96878.16;5044496;28;20012;-26
2023/07/08 03:25:44;;;;;;;4.32;2.45;;;;;;;27.94;37.75;96868.84;5043379;28;20027;-26
2023/07/08 03:28:14;;;;;;;5.43;2.78;;;;;;;27.98;38.27;96860.88;5050235;28;20386;-26
2023/07/08 03:30:41;;;;;;;3.63;2.55;;;;;;;27.98;37.99;96858.84;5045961;28;20489;-27
2023/07/08 03:33:08;;;;;;;4.32;2.38;;;;;;;27.95;37.62;96848.00;5041621;28;20029;-26
2023/07/08 03:35:33;;;;;;;5.38;2.47;;;;;;;27.85;37.69;96842.09;5036931;28;20405;-26
2023/07/08 03:37:59;;;;;;;4.97;2.60;;;;;;;28.07;38.18;96830.56;5051028;28;20021;-27
2023/07/08 03:40:24;;;;;;;3.47;2.25;;;;;;;28.07;37.12;96832.59;5043021;28;20453;-26
2023/07/08 03:42:49;;;;;;;4.35;2.67;;;;;;;27.98;37.39;96822.63;5050998;28;20120;-26
2023/07/08 03:45:15;;;;;;;4.75;2.30;;;;;;;27.89;37.46;96836.97;5049618;28;20034;-26
2023/07/08 03:47:40;;;;;;;5.43;2.75;;;;;;;28.11;37.11;96819.84;5043649;28;20375;-26
2023/07/08 03:50:18;;;;;;;3.38;2.20;;;;;;;27.99;37.57;96815.00;5051004;28;20059;-27
2023/07/08 03:52:44;;;;;;;5.43;2.30;;;;;;;28.05;37.12;96799.69;5036754;28;20100;-26
2023/07/08 03:55:11;;;;;;;4.45;2.30;;;;;;;28.02;37.03;96784.03;5051009;28;20029;-26
2023/07/08 03:57:36;;;;;;;4.00;2.53;;;;;;;27.90;37.02;96771.56;5043353;28;20063;-26
2023/07/08 04:00:03;;;;;;;2.78;2.20;;;;;;;27.92;36.66;96777.38;5051040;28;20044;-26
2023/07/08 04:02:29;;;;;;;3.83;2.40;;;;;;;27.90;36.78;96771.56;5043132;28;20437;-26
2023/07/08 04:04:54;;;;;;;4.18;2.20;;;;;;;27.87;36.65;96773.38;5052350;28;20100;-26
2023/07/08 04:07:19;;;;;;;4.35;2.58;;;;;;;27.93;36.56;96773.31;5054988;28;20021;-26
2023/07/08 04:09:49;;;;;;;5.47;2.42;;;;;;;27.83;37.26;96783.34;5052893;28;20025;-26
2023/07/08 04:12:16;;;;;;;6.22;2.30;;;;;;;27.94;36.91;96788.75;5045061;28;20057;-27
2023/07/08 04:14:42;;;;;;;4.15;2.22;;;;;;;27.96;37.14;96794.50;5052119;28;20099;-26
2023/07/08 04:17:09;;;;;;;6.80;3.00;;;;;;;27.83;36.90;96797.28;5047546;28;20025;-26
2023/07/08 04:19:35;;;;;;;5.13;2.65;;;;;;;27.93;36.90;96792.06;5054578;28;20037;-27
2023/07/08 04:22:02;;;;;;;4.85;2.58;;;;;;;27.97;36.33;96793.22;5045531;28;20082;-26
2023/07/08 04:24:27;;;;;;;6.15;2.20;;;;;;;27.93;36.63;96792.81;5049471;28;20520;-26
2023/07/08 04:26:53;;;;;;;4.60;2.55;;;;;;;27.85;36.52;96789.13;5053647;28;20028;-26
2023/07/08 04:29:21;;;;;;;3.67;2.53;;;;;;;27.90;37.07;96788.31;5047294;28;20017;-26
2023/07/08 04:31:47;;;;;;;5.90;2.55;;;;;;;28.04;36.61;96780.69;5047661;28;20025;-26
2023/07/08 04:34:13;;;;;;;3.85;2.58;;;;;;;27.87;37.07;96783.78;5046296;28;20025;-26
2023/07/08 04:36:39;;;;;;;5.40;2.30;;;;;;;27.93;37.09;96792.81;5047792;28;20033;-26
2023/07/08 04:39:07;;;;;;;4.05;2.47;;;;;;;27.96;37.17;96811.25;5053530;28;20358;-26
2023/07/08 04:41:32;;;;;;;6.90;2.25;;;;;;;27.97;37.46;96834.28;5047218;28;20055;-26
2023/07/08 04:44:01;;;;;;;5.13;2.03;;;;;;;28.04;37.65;96842.03;5054229;28;20399;-26
2023/07/08 04:46:34;;;;;;;4.75;2.35;;;;;;;28.04;37.93;96873.47;5051334;28;20037;-26
2023/07/08 04:49:00;;;;;;;;;;;;;;;27.97;38.26;96874.06;5050403;28;20523;-26
2023/07/08 04:51:26;;;;;;;2.80;2.00;;;;;;;28.09;38.22;96857.91;5052056;28;19991;-26
2023/07/08 04:53:51;;;;;;;4.75;2.47;;;;;;;28.06;38.36;96822.75;5047873;28;20021;-26
2023/07/08 04:56:16;;;;;;;4.25;2.05;;;;;;;27.88;38.25;96793.66;5053821;28;20485;-26
2023/07/08 04:58:42;;;;;;;5.68;2.58;;;;;;;27.94;38.46;96771.25;5052999;28;20026;-26
2023/07/08 05:01:07;;;;;;;4.10;2.53;;;;;;;27.96;38.72;96772.22;5054192;28;20091;-26
2023/07/08 05:03:33;;;;;;;6.05;3.67;;;;;;;27.97;38.96;96770.94;5045775;28;20090;-26
2023/07/08 05:05:58;;;;;;;6.10;2.60;;;;;;;27.89;39.58;96767.28;5053773;28;20047;-27
2023/07/08 05:08:24;;;;;;;7.35;2.80;;;;;;;27.93;39.98;96772.56;5053883;28;20039;-26
2023/07/08 05:10:49;;;;;;;4.60;2.45;;;;;;;27.87;39.80;96772.63;5045509;28;20067;-26
2023/07/08 05:13:15;;;;;;;4.70;2.35;;;;;;;27.71;40.05;96787.59;5053364;28;20382;-27
2023/07/08 05:15:40;;;;;;;6.38;2.40;;;;;;;27.87;39.99;96784.53;5045388;28;20021;-26
2023/07/08 05:18:05;;;;;;;5.55;2.70;;;;;;;27.77;39.78;96766.75;5045849;28;20103;-26
2023/07/08 05:20:33;;;;;;;3.90;2.50;;;;;;;27.89;40.04;96772.84;5048204;28;20468;-26
2023/07/08 05:22:59;;;;;;;5.03;2.40;;;;;;;27.89;40.15;96801.47;5051658;28;20036;-27
2023/07/08 05:25:24;;;;;;;3.67;2.40;;;;;;;28.01;40.10;96815.22;5049570;28;20485;-26
2023/07/08 05:27:50;;;;;;;4.65;2.22;;;;;;;28.02;40.02;96834.22;5036867;28;20025;-26
2023/07/08 05:30:17;;;;;;;5.68;2.80;;;;;;;28.15;40.18;96853.00;5043374;28;20017;-26
2023/07/08 05:32:43;;;;;;;6.80;2.42;;;;;;;28.03;40.32;96857.25;5049295;28;20028;-27
2023/07/08 05:35:09;;;;;;;6.35;2.40;;;;;;;27.90;40.34;96874.72;5045109;28;20025;-26
2023/07/08 05:37:34;;;;;;;5.20;2.40;;;;;;;27.95;40.10;96879.44;5043506;28;20034;-26
2023/07/08 05:40:02;;;;;;;5.38;2.70;;;;;;;27.81;40.44;96878.66;5049952;28;20021;-26
2023/07/08 05:42:28;;;;;;;5.30;2.55;;;;;;;27.90;40.35;96885.84;5045615;28;20042;-26
2023/07/08 05:44:54;;;;;;;5.47;2.22;;;;;;;28.04;39.70;96881.06;5053271;28;20032;-26
2023/07/08 05:47:21;;;;;;;5.60;2.75;;;;;;;28.00;39.85;96863.91;5051793;28;20094;-26
2023/07/08 05:49:47;;;;;;;3.28;2.40;;;;;;;27.84;40.02;96862.88;5053090;28;20021;-26
2023/07/08 05:52:12;;;;;;;7.30;2.50;;;;;;;28.02;39.52;96867.66;5045483;28;20025;-26
2023/07/08 05:54:39;;;;;;;3.75;2.17;;;;;;;28.26;39.75;96863.22;5052065;28;20037;-26
2023/07/08 05:57:06;;;;;;;5.72;2.45;;;;;;;28.14;39.39;96851.50;5047688;28;20017;-26
2023/07/08 05:59:32;;;;;;;5.32;2.78;;;;;;;28.13;39.73;96859.09;5050688;28;20079;-26
2023/07/08 06:01:58;;;;;;;5.15;2.70;;;;;;;28.08;39.95;96865.50;5049235;28;20021;-26
2023/07/08 06:04:23;;;;;;;5.88;2.20;;;;;;;28.18;39.92;96869.44;5049831;28;20021;-26
2023/07/08 06:06:49;;;;;;;3.95;2.20;;;;;;;28.23;40.10;96873.41;5043173;28;20112;-26
2023/07/08 06:09:14;;;;;;;4.68;2.88;;;;;;;28.20;40.44;96889.16;5039529;28;20021;-27
2023/07/08 06:11:40;;;;;;;3.95;2.50;;;;;;;28.28;40.60;96883.72;5044083;28;20052;-26
2023/07/08 06:14:05;;;;;;;8.23;2.63;;;;;;;28.32;40.67;96875.00;5052610;28;20025;-26
2023/07/08 06:16:31;;;;;;;4.82;2.85;;;;;;;28.16;40.75;96883.13;5045875;28;20466;-26
2023/07/08 06:18:57;;;;;;;9.27;3.17;;;;;;;28.12;41.60;96879.91;5044757;28;20024;-26
2023/07/08 06:21:23;;;;;;;4.53;2.75;;;;;;;28.08;41.12;96876.66;5045583;28;20016;-27
2023/07/08 06:23:49;;;;;;;5.32;2.55;;;;;;;28.06;41.68;96872.94;5051769;28;20025;-26
2023/07/08 06:26:14;;;;;;;2.88;2.17;;;;;;;28.09;41.26;96874.63;5045008;28;20059;-26
2023/07/08 06:28:41;;;;;;;5.53;2.50;;;;;;;28.08;41.57;96884.28;5045936;28;20025;-27
2023/07/08 06:31:06;;;;;;;5.47;2.33;;;;;;;28.04;41.71;96887.41;5050173;28;20039;-27
2023/07/08 06:33:33;;;;;;;4.82;2.35;;;;;;;28.15;41.58;96894.81;5040954;28;20029;-27
2023/07/08 06:35:58;;;;;;;5.40;2.60;;;;;;;28.06;41.80;96882.06;5042358;28;20029;-26
2023/07/08 06:38:24;;;;;;;5.10;2.22;;;;;;;28.24;41.62;96889.59;5049282;28;20032;-26
2023/07/08 06:40:49;;;;;;;5.47;2.38;;;;;;;28.42;41.22;96892.84;5047337;28;20025;-26
2023/07/08 06:43:15;;;;;;;6.65;2.47;;;;;;;28.46;40.99;96898.84;5050673;28;20041;-26
2023/07/08 06:45:41;;;;;;;6.00;2.60;;;;;;;28.36;41.27;96894.97;5052133;28;20493;-26
2023/07/08 06:48:06;;;;;;;6.72;3.30;;;;;;;28.42;41.04;96904.00;5052050;28;20090;-26
2023/07/08 06:50:32;;;;;;;3.72;2.58;;;;;;;28.30;40.88;96895.09;5050577;28;20032;-26
2023/07/08 06:52:57;;;;;;;5.68;3.08;;;;;;;28.46;40.84;96907.97;5044515;28;20017;-26
2023/07/08 06:55:23;;;;;;;4.72;2.53;;;;;;;28.46;40.73;96907.97;5050686;28;20031;-27
2023/07/08 06:57:49;;;;;;;4.57;2.78;;;;;;;28.44;40.60;96898.63;5044909;28;20040;-26
2023/07/08 07:00:14;;;;;;;4.05;2.28;;;;;;;28.44;40.84;96887.47;5051580;28;20458;-26
2023/07/08 07:02:40;;;;;;;4.65;2.78;;;;;;;28.50;40.78;96893.72;5044004;28;20079;-26
2023/07/08 07:05:06;;;;;;;5.13;2.60;;;;;;;28.54;40.50;96905.31;5051699;28;20027;-26
2023/07/08 07:07:32;;;;;;;4.00;2.67;;;;;;;28.68;40.30;96912.41;5044068;28;20037;-27
2023/07/08 07:09:57;;;;;;;5.40;3.03;;;;;;;28.65;40.44;96919.06;5048103;28;20026;-26
2023/07/08 07:12:26;;;;;;;5.65;2.50;;;;;;;28.53;39.73;96926.88;5046998;28;20021;-27
2023/07/08 07:14:52;;;;;;;4.47;2.50;;;;;;;28.65;40.32;96930.22;5049397;28;20429;-26
2023/07/08 07:17:22;;;;;;;3.30;2.55;;;;;;;28.75;39.97;96936.13;5041425;28;20534;-26
2023/07/08 07:19:48;;;;;;;4.28;2.58;;;;;;;28.63;40.32;96930.00;5048066;28;20517;-26
2023/07/08 07:22:13;;;;;;;4.82;2.47;;;;;;;28.69;39.87;96932.66;5048397;28;20104;-27
2023/07/08 07:24:39;;;;;;;3.35;2.42;;;;;;;28.76;39.81;96932.78;5047378;28;20024;-26
2023/07/08 07:27:05;;;;;;;4.68;2.63;;;;;;;28.64;40.43;96931.50;5043524;28;20076;-26
2023/07/08 07:29:43;;;;;;;3.85;2.45;;;;;;;28.83;39.56;96939.78;5044110;28;20078;-27
2023/07/08 07:32:09;;;;;;;3.83;2.20;;;;;;;28.84;39.34;96928.09;5042668;28;20024;-27
2023/07/08 07:34:35;;;;;;;3.67;2.28;;;;;;;28.90;39.60;96928.00;5038445;28;20028;-26
2023/07/08 07:37:00;;;;;;;6.15;2.70;;;;;;;28.77;39.34;96934.28;5050587;28;20496;-26
2023/07/08 07:39:28;;;;;;;3.83;2.20;;;;;;;28.68;39.19;96923.56;5043760;28;20021;-26
2023/07/08 07:41:53;;;;;;;3.45;2.30;;;;;;;28.71;39.66;96921.72;5051267;28;20052;-27
2023/07/08 07:44:19;;;;;;;4.15;2.30;;;;;;;28.82;39.13;96915.94;5049933;28;20355;-26
2023/07/08 07:46:46;;;;;;;4.47;2.38;;;;;;;28.47;39.20;96922.66;5050887;28;20029;-27
2023/07/08 07:49:11;;;;;;;5.00;2.42;;;;;;;28.65;39.29;96921.09;5050683;28;20023;-27
2023/07/08 07:51:36;;;;;;;7.00;2.47;;;;;;;28.76;38.79;96929.25;5040789;28;20021;-26
2023/07/08 07:54:02;;;;;;;6.45;2.88;;;;;;;28.60;39.13;96933.84;5046327;28;20017;-26
2023/07/08 07:56:27;;;;;;;6.15;2.92;;;;;;;28.78;38.79;96937.84;5049480;28;20025;-26
2023/07/08 07:58:53;;;;;;;9.73;3.00;;;;;;;28.79;38.84;96948.50;5044255;28;20032;-26
2023/07/08 08:01:19;;;;;;;5.65;2.30;;;;;;;28.64;38.79;96937.06;5050814;28;20148;-27
2023/07/08 08:03:45;;;;;;;5.70;2.40;;;;;;;28.68;38.98;96920.78;5049762;28;20032;-26
2023/07/08 08:06:11;;;;;;;5.35;2.70;;;;;;;28.70;38.79;96918.19;5050739;28;20025;-26
2023/07/08 08:08:36;;;;;;;4.07;2.30;;;;;;;28.80;39.20;96938.09;5042935;28;20366;-26
2023/07/08 08:11:02;;;;;;;4.18;2.30;;;;;;;28.80;39.85;96935.28;5043552;28;20482;-26
2023/07/08 08:13:27;;;;;;;5.28;2.75;;;;;;;28.84;39.43;96925.28;5043961;28;20478;-26
2023/07/08 08:15:57;;;;;;;5.15;2.30;;;;;;;28.83;40.14;96929.38;5042941;28;20029;-26
2023/07/08 08:18:23;;;;;;;4.07;2.45;;;;;;;28.76;40.44;96927.22;5050487;28;20025;-27
2023/07/08 08:20:50;;;;;;;5.45;2.70;;;;;;;28.82;40.73;96932.69;5043153;28;20022;-26
2023/07/08 08:23:16;;;;;;;5.05;2.65;;;;;;;28.74;41.27;96924.19;5043922;28;20079;-26
2023/07/08 08:25:41;;;;;;;6.03;2.60;;;;;;;28.54;42.06;96928.38;5044540;28;20034;-26
2023/07/08 08:28:07;;;;;;;7.95;2.63;;;;;;;28.79;41.36;96940.13;5047916;28;20029;-26
2023/07/08 08:30:32;;;;;;;3.65;2.42;;;;;;;28.86;41.27;96930.34;5040675;28;20029;-26
2023/07/08 08:32:58;;;;;;;4.93;2.33;;;;;;;28.75;41.59;96931.28;5040854;28;20032;-26
2023/07/08 08:35:23;;;;;;;4.75;2.85;;;;;;;28.83;41.13;96934.94;5042888;28;20025;-26
2023/07/08 08:37:49;;;;;;;5.60;2.70;;;;;;;28.89;40.99;96929.28;5050563;28;20100;-27
2023/07/08 08:40:17;;;;;;;5.15;2.55;;;;;;;28.73;41.22;96935.91;5041898;28;20147;-26
2023/07/08 08:42:51;;;;;;;4.70;3.10;;;;;;;28.85;40.90;96932.38;5043306;28;20410;-26
2023/07/08 08:45:20;;;;;;;4.30;3.13;;;;;;;28.91;40.87;96949.78;5048176;28;20436;-26
2023/07/08 08:47:50;;;;;;;6.85;3.35;;;;;;;28.92;41.02;96947.75;5050255;28;20024;-26
2023/07/08 08:50:32;;;;;;;5.80;3.55;;;;;;;28.95;40.91;96947.41;5050166;28;20021;-26
2023/07/08 08:53:00;;;;;;;11.35;4.97;;;;;;;28.93;41.05;96944.41;5041517;28;20424;-26
2023/07/08 08:55:26;;;;;;;5.85;3.38;;;;;;;28.92;41.48;96944.97;5053027;28;20021;-29
2023/07/08 08:58:02;;;;;;;7.90;3.30;;;;;;;28.93;41.09;96936.03;5047300;28;20016;-26
2023/07/08 09:01:01;;;;;;;5.55;2.97;;;;;;;28.98;41.16;96936.44;5052847;28;20104;-26
2023/07/08 09:03:50;;;;;;;4.60;2.90;;;;;;;28.93;41.19;96936.03;5049530;28;20507;-26
2023/07/08 09:06:22;;;;;;;7.60;3.25;;;;;;;28.99;41.40;96929.59;5048621;28;20394;-28
2023/07/08 09:08:50;;;;;;;7.07;3.22;;;;;;;28.91;41.60;96941.41;5046164;28;20438;-26
2023/07/08 09:11:39;;;;;;;7.22;4.40;;;;;;;29.04;41.41;96935.06;5046459;28;20028;-26
2023/07/08 09:14:29;;;;;;;11.35;6.28;;;;;;;29.00;41.56;96934.63;5046556;28;20416;-26
2023/07/08 09:17:10;;;;;;;8.50;4.68;;;;;;;29.10;41.15;96944.06;5045322;28;20431;-26
2023/07/08 09:19:43;;;;;;;7.70;3.80;;;;;;;28.98;41.04;96944.84;5053602;28;20039;-26
2023/07/08 09:22:20;;;;;;;5.75;3.70;;;;;;;28.99;41.20;96940.75;5051023;28;20021;-28
2023/07/08 09:24:54;;;;;;;6.68;3.70;;;;;;;29.14;40.84;96938.91;5050416;28;20033;-26
2023/07/08 09:27:20;;;;;;;5.60;3.40;;;;;;;29.11;40.66;96942.03;5046646;28;20024;-27
2023/07/08 09:29:46;;;;;;;5.35;3.60;;;;;;;29.07;40.83;96933.22;5046098;28;20397;-26
2023/07/08 09:32:21;;;;;;;7.05;3.13;;;;;;;29.05;41.08;96930.25;5045545;28;20564;-26
2023/07/08 09:34:52;;;;;;;7.95;3.70;;;;;;;29.05;41.10;96924.66;5046486;28;20082;-26
2023/07/08 09:37:38;;;;;;;6.55;4.05;;;;;;;29.09;41.30;96919.47;5044200;28;20035;-26
2023/07/08 09:40:30;;;;;;;5.57;3.90;;;;;;;29.07;41.39;96917.22;5043528;28;20482;-27
2023/07/08 09:43:03;;;;;;;5.07;3.60;;;;;;;29.13;41.54;96917.09;5043006;28;20049;-26
2023/07/08 09:45:39;;;;;;;6.47;3.88;;;;;;;29.16;41.40;96921.63;5052326;28;20029;-27
2023/07/08 09:48:16;;;;;;;7.72;4.63;;;;;;;29.18;41.48;96922.56;5053223;28;20434;-27
2023/07/08 09:50:43;;;;;;;6.88;3.97;;;;;;;29.18;41.58;96924.59;5046332;28;20359;-27
2023/07/08 09:53:13;;;;;;;7.05;4.05;;;;;;;29.20;41.72;96919.22;5045656;28;20107;-27
2023/07/08 09:55:39;;;;;;;10.73;4.60;;;;;;;29.20;41.81;96919.22;5044774;28;20103;-27
2023/07/08 09:58:05;;;;;;;7.40;4.20;;;;;;;29.28;42.04;96932.03;5046024;28;20104;-27
2023/07/08 10:00:39;;;;;;;8.13;3.45;;;;;;;29.27;42.19;96929.75;5051774;28;20459;-26
2023/07/08 10:03:27;;;;;;;10.68;6.72;;;;;;;29.25;42.29;96932.34;5052114;28;20020;-26
2023/07/08 10:06:00;;;;;;;9.32;6.97;;;;;;;29.31;41.90;96935.75;5052515;28;20018;-26
2023/07/08 10:08:28;;;;;;;;;;;;;;;29.36;41.86;96928.56;5053072;28;20474;-26
2023/07/08 10:11:18;;;;;;;8.68;4.50;;;;;;;29.29;42.39;96927.19;5044406;28;19912;-27
2023/07/08 10:13:52;;;;;;;6.25;3.65;;;;;;;29.41;41.71;96928.47;5044627;28;20064;-27
2023/07/08 10:16:26;;;;;;;8.50;3.45;;;;;;;29.27;42.18;96921.38;5045787;28;20024;-26
2023/07/08 10:18:52;;;;;;;5.63;3.80;;;;;;;29.39;42.06;96919.13;5044739;28;20057;-27
2023/07/08 10:21:33;;;;;;;8.45;4.00;;;;;;;29.39;42.07;96907.94;5045651;28;20064;-27
2023/07/08 10:24:35;;;;;;;7.00;3.70;;;;;;;29.45;42.12;96914.91;5051276;28;20028;-26
2023/07/08 10:27:15;;;;;;;6.28;3.40;;;;;;;29.37;42.53;96916.09;5042888;28;20029;-26
2023/07/08 10:29:43;;;;;;;7.03;3.45;;;;;;;29.36;42.28;96920.19;5040961;28;20119;-27
2023/07/08 10:32:40;;;;;;;7.53;3.63;;;;;;;29.49;41.87;96920.91;5051183;28;20067;-28
2023/07/08 10:35:15;;;;;;;6.68;3.85;;;;;;;29.43;41.84;96911.16;4995545;28;20038;-26
2023/07/08 10:38:17;;;;;;;11.35;6.05;;;;;;;29.43;41.94;96911.16;4994349;28;20582;-27
2023/07/08 10:40:54;;;;;;;6.40;3.58;;;;;;;29.44;41.74;96905.03;4993822;28;20026;-26
2023/07/08 10:43:37;;;;;;;8.48;4.65;;;;;;;29.49;41.65;96909.75;4994337;28;20066;-26
2023/07/08 10:46:13;;;;;;;9.23;4.43;;;;;;;29.62;41.14;96909.69;4993613;28;20037;-26
2023/07/08 10:48:47;;;;;;;9.63;5.95;;;;;;;29.53;40.84;96915.00;4993531;28;20049;-26
2023/07/08 10:51:37;;;;;;;7.30;4.45;;;;;;;29.52;40.93;96902.31;4993534;28;20042;-27
2023/07/08 10:54:03;;;;;;;8.00;5.25;;;;;;;29.61;41.15;96901.84;4993511;28;20041;-27
2023/07/08 10:56:28;;;;;;;10.25;4.15;;;;;;;29.70;41.64;96906.22;4994130;28;20026;-27
2023/07/08 10:59:34;;;;;;;8.80;4.05;;;;;;;29.74;41.56;96909.44;4993688;28;20088;-27
2023/07/08 11:02:17;;;;;;;13.07;4.10;;;;;;;29.73;42.03;96908.69;4954415;28;20526;-26
2023/07/08 11:05:03;;;;;;;7.35;3.50;;;;;;;29.66;41.79;96906.56;4993932;28;20045;-27
2023/07/08 11:07:44;;;;;;;5.30;3.25;;;;;;;29.70;41.52;96906.97;4991437;28;20476;-27
2023/07/08 11:10:35;;;;;;;6.78;2.97;;;;;;;29.74;41.73;96903.84;5008730;28;20033;-26
2023/07/08 11:13:11;;;;;;;7.32;3.60;;;;;;;29.71;42.25;96905.69;5050945;28;20024;-27
2023/07/08 11:15:49;;;;;;;5.40;3.17;;;;;;;29.72;41.80;96901.59;5043752;28;20107;-27
2023/07/08 11:18:39;;;;;;;7.70;3.50;;;;;;;29.71;42.33;96899.34;5034027;28;20041;-27
2023/07/08 11:21:10;;;;;;;6.00;3.38;;;;;;;29.75;41.94;96900.50;5043585;28;20394;-27
2023/07/08 11:23:40;;;;;;;8.77;3.33;;;;;;;29.84;42.46;96902.81;5051253;28;20049;-28
2023/07/08 11:26:27;;;;;;;6.05;3.20;;;;;;;29.81;42.38;96903.16;5043448;28;20077;-28
2023/07/08 11:28:56;;;;;;;5.32;3.30;;;;;;;29.76;42.02;96904.06;5044062;28;20031;-27
2023/07/08 11:31:24;;;;;;;4.70;3.00;;;;;;;29.76;42.17;96901.25;5044178;28;20021;-26
2023/07/08 11:33:51;;;;;;;6.85;3.58;;;;;;;29.83;41.67;96900.56;5044294;28;20060;-26
2023/07/08 11:36:18;;;;;;;7.93;3.80;;;;;;;29.82;41.81;96893.47;5042978;28;20405;-27
2023/07/08 11:38:49;;;;;;;7.07;3.20;;;;;;;29.81;41.65;96887.13;5046339;28;20089;-26
2023/07/08 11:41:18;;;;;;;5.13;3.20;;;;;;;29.85;41.53;96886.81;5041876;28;20021;-27
2023/07/08 11:43:49;;;;;;;8.38;3.75;;;;;;;29.85;41.78;96886.81;5040231;28;20041;-26